sensor_id;sensor_type;location;lat;lon;timestamp;pressure;altitude;pressure_sealevel;temperature;humidity
21357;BME280;10836;53.068;18.234;2023-05-07T00:01:49;101846.72;;;2.36;100.00
21357;BME280;10836;53.068;18.234;2023-05-07T00:04:16;101847.28;;;2.10;100.00
21357;BME280;10836;53.068;18.234;2023-05-07T00:06:44;101846.53;;;2.16;100.00
21357;BME280;10836;53.068;18.234;2023-05-07T00:09:11;101850.63;;;1.97;100.00
21357;BME280;10836;53.068;18.234;2023-05-07T00:11:38;101849.63;;;1.98;100.00
21357;BME280;10836;53.068;18.234;2023-05-07T00:14:05;101843.84;;;2.02;100.00
21357;BME280;10836;53.068;18.234;2023-05-07T00:16:32;101845.53;;;2.03;100.00
21357;BME280;10836;53.068;18.234;2023-05-07T00:18:59;101845.09;;;1.84;100.00
21357;BME280;10836;53.068;18.234;2023-05-07T00:21:26;101849.31;;;1.72;100.00
21357;BME280;10836;53.068;18.234;2023-05-07T00:23:54;101852.38;;;1.69;100.00
21357;BME280;10836;53.068;18.234;2023-05-07T00:26:21;101847.50;;;1.79;100.00
21357;BME280;10836;53.068;18.234;2023-05-07T00:28:50;101849.69;;;1.69;100.00
21357;BME280;10836;53.068;18.234;2023-05-07T00:31:17;101855.06;;;1.69;100.00
21357;BME280;10836;53.068;18.234;2023-05-07T00:33:45;101855.97;;;1.76;100.00
21357;BME280;10836;53.068;18.234;2023-05-07T00:36:12;101858.94;;;1.81;100.00
21357;BME280;10836;53.068;18.234;2023-05-07T00:38:39;101851.41;;;1.77;100.00
21357;BME280;10836;53.068;18.234;2023-05-07T00:41:06;101859.06;;;1.73;100.00
21357;BME280;10836;53.068;18.234;2023-05-07T00:43:33;101858.31;;;1.64;100.00
21357;BME280;10836;53.068;18.234;2023-05-07T00:46:00;101870.00;;;1.57;100.00
21357;BME280;10836;53.068;18.234;2023-05-07T00:48:28;101867.31;;;1.57;100.00
21357;BME280;10836;53.068;18.234;2023-05-07T00:50:55;101857.47;;;1.49;100.00
21357;BME280;10836;53.068;18.234;2023-05-07T00:53:22;101869.88;;;1.36;100.00
21357;BME280;10836;53.068;18.234;2023-05-07T00:55:49;101873.53;;;1.28;100.00
21357;BME280;10836;53.068;18.234;2023-05-07T00:58:16;101875.47;;;1.19;100.00
21357;BME280;10836;53.068;18.234;2023-05-07T01:00:43;101880.19;;;1.17;100.00
21357;BME280;10836;53.068;18.234;2023-05-07T01:03:11;101879.06;;;1.12;100.00
21357;BME280;10836;53.068;18.234;2023-05-07T01:05:38;101877.94;;;1.06;100.00
21357;BME280;10836;53.068;18.234;2023-05-07T01:08:06;101876.63;;;1.02;100.00
21357;BME280;10836;53.068;18.234;2023-05-07T01:10:33;101873.00;;;0.95;100.00
21357;BME280;10836;53.068;18.234;2023-05-07T01:13:00;101876.81;;;1.00;100.00
21357;BME280;10836;53.068;18.234;2023-05-07T01:15:28;101874.66;;;0.96;100.00
21357;BME280;10836;53.068;18.234;2023-05-07T01:17:56;101880.69;;;0.83;100.00
21357;BME280;10836;53.068;18.234;2023-05-07T01:20:30;101870.53;;;0.71;100.00
21357;BME280;10836;53.068;18.234;2023-05-07T01:22:57;101882.47;;;0.68;100.00
21357;BME280;10836;53.068;18.234;2023-05-07T01:25:24;101877.81;;;0.62;100.00
21357;BME280;10836;53.068;18.234;2023-05-07T01:27:53;101878.88;;;0.53;100.00
21357;BME280;10836;53.068;18.234;2023-05-07T01:30:25;101874.34;;;0.53;100.00
21357;BME280;10836;53.068;18.234;2023-05-07T01:33:00;101882.56;;;0.52;100.00
21357;BME280;10836;53.068;18.234;2023-05-07T01:35:36;101883.06;;;0.55;100.00
21357;BME280;10836;53.068;18.234;2023-05-07T01:38:05;101882.22;;;0.55;100.00
21357;BME280;10836;53.068;18.234;2023-05-07T01:40:33;101877.19;;;0.52;100.00
21357;BME280;10836;53.068;18.234;2023-05-07T01:43:04;101877.56;;;0.49;100.00
21357;BME280;10836;53.068;18.234;2023-05-07T01:45:33;101888.91;;;0.36;100.00
21357;BME280;10836;53.068;18.234;2023-05-07T01:48:02;101884.91;;;0.32;100.00
21357;BME280;10836;53.068;18.234;2023-05-07T01:50:33;101887.34;;;0.19;100.00
21357;BME280;10836;53.068;18.234;2023-05-07T01:53:01;101888.38;;;0.10;100.00
21357;BME280;10836;53.068;18.234;2023-05-07T01:55:28;101893.75;;;0.10;100.00
21357;BME280;10836;53.068;18.234;2023-05-07T01:57:55;101891.59;;;0.05;100.00
21357;BME280;10836;53.068;18.234;2023-05-07T02:00:22;101900.78;;;0.11;100.00
21357;BME280;10836;53.068;18.234;2023-05-07T02:02:49;101896.75;;;0.15;100.00
21357;BME280;10836;53.068;18.234;2023-05-07T02:05:26;101889.72;;;0.14;100.00
21357;BME280;10836;53.068;18.234;2023-05-07T02:08:05;101898.53;;;-0.01;100.00
21357;BME280;10836;53.068;18.234;2023-05-07T02:10:32;101895.78;;;0.08;100.00
21357;BME280;10836;53.068;18.234;2023-05-07T02:12:59;101896.38;;;-0.05;100.00
21357;BME280;10836;53.068;18.234;2023-05-07T02:15:28;101895.19;;;-0.03;100.00
21357;BME280;10836;53.068;18.234;2023-05-07T02:18:03;101903.06;;;-0.01;100.00
21357;BME280;10836;53.068;18.234;2023-05-07T02:20:31;101901.84;;;0.02;100.00
21357;BME280;10836;53.068;18.234;2023-05-07T02:22:58;101905.34;;;0.10;100.00
21357;BME280;10836;53.068;18.234;2023-05-07T02:25:26;101902.47;;;0.12;100.00
21357;BME280;10836;53.068;18.234;2023-05-07T02:27:53;101913.91;;;0.06;100.00
21357;BME280;10836;53.068;18.234;2023-05-07T02:30:24;101904.25;;;-0.04;100.00
21357;BME280;10836;53.068;18.234;2023-05-07T02:32:54;101908.28;;;-0.08;100.00
21357;BME280;10836;53.068;18.234;2023-05-07T02:35:20;101908.44;;;-0.01;100.00
21357;BME280;10836;53.068;18.234;2023-05-07T02:37:47;101912.78;;;0.00;100.00
21357;BME280;10836;53.068;18.234;2023-05-07T02:40:15;101910.44;;;-0.03;100.00
21357;BME280;10836;53.068;18.234;2023-05-07T02:42:42;101921.09;;;-0.26;100.00
21357;BME280;10836;53.068;18.234;2023-05-07T02:45:09;101916.72;;;-0.19;100.00
21357;BME280;10836;53.068;18.234;2023-05-07T02:47:37;101921.56;;;-0.14;100.00
21357;BME280;10836;53.068;18.234;2023-05-07T02:50:05;101918.94;;;-0.30;100.00
21357;BME280;10836;53.068;18.234;2023-05-07T02:52:33;101917.31;;;-0.48;100.00
21357;BME280;10836;53.068;18.234;2023-05-07T02:54:59;101923.03;;;-0.59;100.00
21357;BME280;10836;53.068;18.234;2023-05-07T02:57:27;101919.53;;;-0.68;100.00
21357;BME280;10836;53.068;18.234;2023-05-07T02:59:54;101924.03;;;-0.60;100.00
21357;BME280;10836;53.068;18.234;2023-05-07T03:02:22;101929.91;;;-0.56;100.00
21357;BME280;10836;53.068;18.234;2023-05-07T03:04:48;101926.22;;;-0.55;100.00
21357;BME280;10836;53.068;18.234;2023-05-07T03:07:16;101925.88;;;-0.52;100.00
21357;BME280;10836;53.068;18.234;2023-05-07T03:09:42;101931.75;;;-0.65;100.00
21357;BME280;10836;53.068;18.234;2023-05-07T03:12:10;101936.63;;;-0.60;100.00
21357;BME280;10836;53.068;18.234;2023-05-07T03:14:36;101933.59;;;-0.49;100.00
21357;BME280;10836;53.068;18.234;2023-05-07T03:17:04;101939.63;;;-0.47;100.00
21357;BME280;10836;53.068;18.234;2023-05-07T03:19:30;101942.31;;;-0.55;100.00
21357;BME280;10836;53.068;18.234;2023-05-07T03:21:58;101943.66;;;-0.68;100.00
21357;BME280;10836;53.068;18.234;2023-05-07T03:24:25;101945.34;;;-0.75;100.00
21357;BME280;10836;53.068;18.234;2023-05-07T03:26:52;101947.03;;;-0.65;100.00
21357;BME280;10836;53.068;18.234;2023-05-07T03:29:19;101940.66;;;-0.73;100.00
21357;BME280;10836;53.068;18.234;2023-05-07T03:31:46;101951.72;;;-0.59;100.00
21357;BME280;10836;53.068;18.234;2023-05-07T03:34:13;101944.66;;;-0.60;100.00
21357;BME280;10836;53.068;18.234;2023-05-07T03:36:40;101952.03;;;-0.46;100.00
21357;BME280;10836;53.068;18.234;2023-05-07T03:39:10;101957.75;;;-0.49;100.00
21357;BME280;10836;53.068;18.234;2023-05-07T03:41:40;101964.06;;;-0.34;100.00
21357;BME280;10836;53.068;18.234;2023-05-07T03:44:06;101959.53;;;-0.34;100.00
21357;BME280;10836;53.068;18.234;2023-05-07T03:46:34;101960.34;;;-0.25;100.00
21357;BME280;10836;53.068;18.234;2023-05-07T03:49:02;101966.75;;;-0.34;100.00
21357;BME280;10836;53.068;18.234;2023-05-07T03:51:30;101961.88;;;-0.30;100.00
21357;BME280;10836;53.068;18.234;2023-05-07T03:53:57;101953.66;;;-0.29;100.00
21357;BME280;10836;53.068;18.234;2023-05-07T03:56:25;101962.72;;;-0.30;100.00
21357;BME280;10836;53.068;18.234;2023-05-07T03:58:55;101970.06;;;-0.16;100.00
21357;BME280;10836;53.068;18.234;2023-05-07T04:01:22;101974.06;;;-0.04;100.00
21357;BME280;10836;53.068;18.234;2023-05-07T04:03:50;101979.44;;;-0.04;100.00
21357;BME280;10836;53.068;18.234;2023-05-07T04:06:17;101984.81;;;-0.04;100.00
21357;BME280;10836;53.068;18.234;2023-05-07T04:08:47;101986.72;;;0.19;100.00
21357;BME280;10836;53.068;18.234;2023-05-07T04:11:14;101981.31;;;0.27;100.00
21357;BME280;10836;53.068;18.234;2023-05-07T04:13:41;101988.38;;;0.28;100.00
21357;BME280;10836;53.068;18.234;2023-05-07T04:16:09;101994.22;;;0.31;100.00
21357;BME280;10836;53.068;18.234;2023-05-07T04:18:37;101991.41;;;0.56;100.00
21357;BME280;10836;53.068;18.234;2023-05-07T04:21:05;102002.63;;;0.59;100.00
21357;BME280;10836;53.068;18.234;2023-05-07T04:23:34;102005.28;;;0.68;100.00
21357;BME280;10836;53.068;18.234;2023-05-07T04:26:04;102007.31;;;0.65;100.00
21357;BME280;10836;53.068;18.234;2023-05-07T04:28:36;102008.50;;;0.63;100.00
21357;BME280;10836;53.068;18.234;2023-05-07T04:31:04;102009.97;;;0.74;100.00
21357;BME280;10836;53.068;18.234;2023-05-07T04:33:33;102018.47;;;0.85;100.00
21357;BME280;10836;53.068;18.234;2023-05-07T04:36:03;102015.47;;;1.03;100.00
21357;BME280;10836;53.068;18.234;2023-05-07T04:38:35;102015.06;;;1.14;100.00
21357;BME280;10836;53.068;18.234;2023-05-07T04:41:05;102021.13;;;1.31;100.00
21357;BME280;10836;53.068;18.234;2023-05-07T04:43:37;102024.47;;;1.18;100.00
21357;BME280;10836;53.068;18.234;2023-05-07T04:46:04;102024.50;;;1.10;100.00
21357;BME280;10836;53.068;18.234;2023-05-07T04:48:31;102025.91;;;1.29;100.00
21357;BME280;10836;53.068;18.234;2023-05-07T04:51:01;102025.56;;;1.47;100.00
21357;BME280;10836;53.068;18.234;2023-05-07T04:53:28;102029.44;;;1.67;100.00
21357;BME280;10836;53.068;18.234;2023-05-07T04:55:56;102026.09;;;1.94;100.00
21357;BME280;10836;53.068;18.234;2023-05-07T04:58:28;102025.94;;;2.11;100.00
21357;BME280;10836;53.068;18.234;2023-05-07T05:00:59;102021.84;;;2.29;100.00
21357;BME280;10836;53.068;18.234;2023-05-07T05:03:27;102023.88;;;2.42;100.00
21357;BME280;10836;53.068;18.234;2023-05-07T05:05:54;102030.16;;;2.64;100.00
21357;BME280;10836;53.068;18.234;2023-05-07T05:08:22;102034.88;;;2.77;100.00
21357;BME280;10836;53.068;18.234;2023-05-07T05:10:50;102037.28;;;2.86;100.00
21357;BME280;10836;53.068;18.234;2023-05-07T05:13:17;102040.13;;;2.99;100.00
21357;BME280;10836;53.068;18.234;2023-05-07T05:15:45;102033.38;;;3.10;100.00
21357;BME280;10836;53.068;18.234;2023-05-07T05:18:13;102030.03;;;3.08;100.00
21357;BME280;10836;53.068;18.234;2023-05-07T05:20:40;102045.59;;;3.27;100.00
21357;BME280;10836;53.068;18.234;2023-05-07T05:23:07;102055.63;;;3.33;100.00
21357;BME280;10836;53.068;18.234;2023-05-07T05:25:36;102038.75;;;3.53;100.00
21357;BME280;10836;53.068;18.234;2023-05-07T05:28:03;102047.28;;;3.78;100.00
21357;BME280;10836;53.068;18.234;2023-05-07T05:30:33;102042.75;;;4.13;100.00
21357;BME280;10836;53.068;18.234;2023-05-07T05:33:01;102054.56;;;4.46;100.00
21357;BME280;10836;53.068;18.234;2023-05-07T05:35:29;102046.59;;;4.73;100.00
21357;BME280;10836;53.068;18.234;2023-05-07T05:37:56;102052.44;;;4.83;100.00
21357;BME280;10836;53.068;18.234;2023-05-07T05:40:24;102057.97;;;5.09;100.00
21357;BME280;10836;53.068;18.234;2023-05-07T05:42:50;102055.91;;;5.18;100.00
21357;BME280;10836;53.068;18.234;2023-05-07T05:45:18;102054.44;;;5.28;100.00
21357;BME280;10836;53.068;18.234;2023-05-07T05:47:45;102060.47;;;5.24;100.00
21357;BME280;10836;53.068;18.234;2023-05-07T05:50:13;102062.63;;;5.55;100.00
21357;BME280;10836;53.068;18.234;2023-05-07T05:52:39;102060.53;;;5.70;100.00
21357;BME280;10836;53.068;18.234;2023-05-07T05:55:08;102062.22;;;5.91;100.00
21357;BME280;10836;53.068;18.234;2023-05-07T05:57:36;102068.88;;;6.15;100.00
21357;BME280;10836;53.068;18.234;2023-05-07T06:00:04;102062.78;;;6.39;100.00
21357;BME280;10836;53.068;18.234;2023-05-07T06:02:32;102058.72;;;6.68;100.00
21357;BME280;10836;53.068;18.234;2023-05-07T06:05:00;102064.16;;;6.61;100.00
21357;BME280;10836;53.068;18.234;2023-05-07T06:07:27;102065.63;;;7.09;100.00
21357;BME280;10836;53.068;18.234;2023-05-07T06:09:55;102072.69;;;7.48;100.00
21357;BME280;10836;53.068;18.234;2023-05-07T06:12:22;102073.84;;;7.65;100.00
21357;BME280;10836;53.068;18.234;2023-05-07T06:14:49;102067.28;;;7.73;100.00
21357;BME280;10836;53.068;18.234;2023-05-07T06:17:17;102075.72;;;7.64;100.00
21357;BME280;10836;53.068;18.234;2023-05-07T06:19:49;102065.69;;;7.65;100.00
21357;BME280;10836;53.068;18.234;2023-05-07T06:22:18;102069.94;;;8.04;100.00
21357;BME280;10836;53.068;18.234;2023-05-07T06:24:45;102058.88;;;9.27;100.00
21357;BME280;10836;53.068;18.234;2023-05-07T06:27:12;102069.31;;;9.83;100.00
21357;BME280;10836;53.068;18.234;2023-05-07T06:29:40;102070.63;;;10.51;100.00
21357;BME280;10836;53.068;18.234;2023-05-07T06:32:13;102069.31;;;11.95;93.82
21357;BME280;10836;53.068;18.234;2023-05-07T06:34:42;102068.50;;;11.50;85.60
21357;BME280;10836;53.068;18.234;2023-05-07T06:37:10;102073.81;;;11.73;88.10
21357;BME280;10836;53.068;18.234;2023-05-07T06:39:48;102072.56;;;12.70;80.88
21357;BME280;10836;53.068;18.234;2023-05-07T06:42:16;102072.28;;;13.37;72.71
21357;BME280;10836;53.068;18.234;2023-05-07T06:44:46;102072.19;;;13.90;68.49
21357;BME280;10836;53.068;18.234;2023-05-07T06:47:15;102078.22;;;13.28;66.54
21357;BME280;10836;53.068;18.234;2023-05-07T06:49:45;102085.72;;;14.39;63.57
21357;BME280;10836;53.068;18.234;2023-05-07T06:52:16;102087.78;;;15.21;59.28
21357;BME280;10836;53.068;18.234;2023-05-07T06:54:44;102086.13;;;15.25;55.05
21357;BME280;10836;53.068;18.234;2023-05-07T06:57:14;102085.59;;;14.19;59.22
21357;BME280;10836;53.068;18.234;2023-05-07T06:59:41;102082.94;;;13.33;58.31
21357;BME280;10836;53.068;18.234;2023-05-07T07:02:09;102091.75;;;12.31;62.02
21357;BME280;10836;53.068;18.234;2023-05-07T07:04:36;102095.59;;;12.90;60.21
21357;BME280;10836;53.068;18.234;2023-05-07T07:07:08;102096.72;;;12.34;59.12
21357;BME280;10836;53.068;18.234;2023-05-07T07:09:35;102099.91;;;12.64;57.37
21357;BME280;10836;53.068;18.234;2023-05-07T07:12:04;102101.06;;;12.30;64.73
21357;BME280;10836;53.068;18.234;2023-05-07T07:14:31;102099.03;;;12.81;63.42
21357;BME280;10836;53.068;18.234;2023-05-07T07:16:58;102095.50;;;13.07;60.55
21357;BME280;10836;53.068;18.234;2023-05-07T07:19:25;102101.16;;;13.00;55.92
21357;BME280;10836;53.068;18.234;2023-05-07T07:21:54;102110.16;;;12.52;60.51
21357;BME280;10836;53.068;18.234;2023-05-07T07:24:21;102107.25;;;12.81;61.01
21357;BME280;10836;53.068;18.234;2023-05-07T07:26:52;102112.44;;;12.05;58.26
21357;BME280;10836;53.068;18.234;2023-05-07T07:29:21;102111.16;;;12.46;59.43
21357;BME280;10836;53.068;18.234;2023-05-07T07:31:48;102100.56;;;12.33;59.65
21357;BME280;10836;53.068;18.234;2023-05-07T07:34:18;102106.75;;;12.84;60.04
21357;BME280;10836;53.068;18.234;2023-05-07T07:36:45;102102.28;;;13.75;61.86
21357;BME280;10836;53.068;18.234;2023-05-07T07:39:17;102093.31;;;13.09;56.69
21357;BME280;10836;53.068;18.234;2023-05-07T07:41:46;102096.88;;;12.44;58.40
21357;BME280;10836;53.068;18.234;2023-05-07T07:44:13;102096.75;;;12.94;56.03
21357;BME280;10836;53.068;18.234;2023-05-07T07:46:45;102105.84;;;14.08;55.75
21357;BME280;10836;53.068;18.234;2023-05-07T07:49:14;102104.31;;;14.22;50.77
21357;BME280;10836;53.068;18.234;2023-05-07T07:51:42;102109.00;;;14.63;51.05
21357;BME280;10836;53.068;18.234;2023-05-07T07:54:11;102106.47;;;15.09;49.82
21357;BME280;10836;53.068;18.234;2023-05-07T07:56:39;102115.66;;;14.78;51.24
21357;BME280;10836;53.068;18.234;2023-05-07T07:59:08;102118.41;;;14.73;49.17
21357;BME280;10836;53.068;18.234;2023-05-07T08:01:38;102113.69;;;14.26;48.89
21357;BME280;10836;53.068;18.234;2023-05-07T08:04:05;102110.19;;;13.40;54.70
21357;BME280;10836;53.068;18.234;2023-05-07T08:06:37;102106.03;;;13.64;51.21
21357;BME280;10836;53.068;18.234;2023-05-07T08:09:04;102110.84;;;13.79;53.50
21357;BME280;10836;53.068;18.234;2023-05-07T08:11:32;102117.00;;;13.64;53.06
21357;BME280;10836;53.068;18.234;2023-05-07T08:13:59;102112.81;;;14.20;52.71
21357;BME280;10836;53.068;18.234;2023-05-07T08:16:27;102110.78;;;14.06;49.83
21357;BME280;10836;53.068;18.234;2023-05-07T08:18:58;102110.13;;;14.30;49.67
21357;BME280;10836;53.068;18.234;2023-05-07T08:21:25;102113.53;;;14.90;48.72
21357;BME280;10836;53.068;18.234;2023-05-07T08:23:53;102116.41;;;15.15;49.96
21357;BME280;10836;53.068;18.234;2023-05-07T08:26:20;102129.94;;;14.70;48.69
21357;BME280;10836;53.068;18.234;2023-05-07T08:28:48;102120.31;;;15.45;47.48
21357;BME280;10836;53.068;18.234;2023-05-07T08:31:14;102114.53;;;14.69;51.70
21357;BME280;10836;53.068;18.234;2023-05-07T08:33:44;102124.97;;;14.67;50.07
21357;BME280;10836;53.068;18.234;2023-05-07T08:36:11;102126.50;;;14.47;50.89
21357;BME280;10836;53.068;18.234;2023-05-07T08:38:38;102117.63;;;15.70;51.42
21357;BME280;10836;53.068;18.234;2023-05-07T08:41:10;102116.53;;;15.71;48.43
21357;BME280;10836;53.068;18.234;2023-05-07T08:43:40;102125.25;;;14.75;45.52
21357;BME280;10836;53.068;18.234;2023-05-07T08:46:09;102134.53;;;15.16;47.95
21357;BME280;10836;53.068;18.234;2023-05-07T08:48:42;102129.13;;;15.47;47.81
21357;BME280;10836;53.068;18.234;2023-05-07T08:51:15;102131.91;;;16.74;47.75
21357;BME280;10836;53.068;18.234;2023-05-07T08:53:42;102131.03;;;17.48;46.02
21357;BME280;10836;53.068;18.234;2023-05-07T08:56:14;102142.16;;;16.43;42.24
21357;BME280;10836;53.068;18.234;2023-05-07T08:58:43;102133.06;;;16.22;43.86
21357;BME280;10836;53.068;18.234;2023-05-07T09:01:14;102140.75;;;16.66;44.79
21357;BME280;10836;53.068;18.234;2023-05-07T09:03:45;102137.47;;;16.33;46.42
21357;BME280;10836;53.068;18.234;2023-05-07T09:06:14;102148.91;;;17.01;44.56
21357;BME280;10836;53.068;18.234;2023-05-07T09:08:49;102141.50;;;16.91;45.72
21357;BME280;10836;53.068;18.234;2023-05-07T09:11:20;102139.72;;;17.26;42.75
21357;BME280;10836;53.068;18.234;2023-05-07T09:13:48;102139.75;;;18.38;43.32
21357;BME280;10836;53.068;18.234;2023-05-07T09:16:16;102132.28;;;18.10;39.20
21357;BME280;10836;53.068;18.234;2023-05-07T09:18:45;102142.38;;;16.82;42.00
21357;BME280;10836;53.068;18.234;2023-05-07T09:21:15;102139.72;;;16.01;43.65
21357;BME280;10836;53.068;18.234;2023-05-07T09:23:48;102138.59;;;16.07;43.45
21357;BME280;10836;53.068;18.234;2023-05-07T09:26:15;102136.94;;;15.85;45.48
21357;BME280;10836;53.068;18.234;2023-05-07T09:28:43;102130.53;;;16.61;45.67
21357;BME280;10836;53.068;18.234;2023-05-07T09:31:12;102131.16;;;16.33;45.92
21357;BME280;10836;53.068;18.234;2023-05-07T09:33:40;102133.22;;;17.51;44.54
21357;BME280;10836;53.068;18.234;2023-05-07T09:36:09;102132.69;;;17.93;43.36
21357;BME280;10836;53.068;18.234;2023-05-07T09:38:40;102137.81;;;18.10;42.13
21357;BME280;10836;53.068;18.234;2023-05-07T09:43:40;102135.66;;;18.31;39.15
21357;BME280;10836;53.068;18.234;2023-05-07T09:46:14;102136.16;;;17.20;41.17
21357;BME280;10836;53.068;18.234;2023-05-07T09:48:48;102137.63;;;16.92;42.01
21357;BME280;10836;53.068;18.234;2023-05-07T09:51:28;102132.00;;;15.92;42.83
21357;BME280;10836;53.068;18.234;2023-05-07T09:53:58;102137.16;;;16.60;41.47
21357;BME280;10836;53.068;18.234;2023-05-07T09:56:33;102135.28;;;16.45;39.97
21357;BME280;10836;53.068;18.234;2023-05-07T09:59:03;102135.84;;;15.86;40.70
21357;BME280;10836;53.068;18.234;2023-05-07T10:01:32;102145.75;;;16.38;40.94
21357;BME280;10836;53.068;18.234;2023-05-07T10:04:02;102151.22;;;16.48;40.72
21357;BME280;10836;53.068;18.234;2023-05-07T10:06:32;102158.44;;;15.88;40.17
21357;BME280;10836;53.068;18.234;2023-05-07T10:09:00;102146.09;;;17.16;41.27
21357;BME280;10836;53.068;18.234;2023-05-07T10:11:28;102152.06;;;17.39;42.55
21357;BME280;10836;53.068;18.234;2023-05-07T10:13:55;102148.31;;;17.74;40.28
21357;BME280;10836;53.068;18.234;2023-05-07T10:16:23;102146.94;;;18.39;38.15
21357;BME280;10836;53.068;18.234;2023-05-07T10:18:50;102157.22;;;18.34;39.39
21357;BME280;10836;53.068;18.234;2023-05-07T10:21:23;102150.34;;;17.53;40.98
21357;BME280;10836;53.068;18.234;2023-05-07T10:26:34;102150.91;;;18.86;38.28
21357;BME280;10836;53.068;18.234;2023-05-07T10:29:12;102158.97;;;16.26;38.54
21357;BME280;10836;53.068;18.234;2023-05-07T10:34:29;102156.13;;;16.92;38.60
21357;BME280;10836;53.068;18.234;2023-05-07T10:36:56;102155.63;;;16.85;40.41
21357;BME280;10836;53.068;18.234;2023-05-07T10:39:24;102149.34;;;17.78;38.85
21357;BME280;10836;53.068;18.234;2023-05-07T10:41:51;102158.66;;;18.26;36.71
21357;BME280;10836;53.068;18.234;2023-05-07T10:44:29;102157.81;;;16.62;37.40
21357;BME280;10836;53.068;18.234;2023-05-07T10:47:08;102150.66;;;17.90;36.26
21357;BME280;10836;53.068;18.234;2023-05-07T10:52:16;102151.88;;;17.20;39.57
21357;BME280;10836;53.068;18.234;2023-05-07T10:57:49;102151.78;;;16.66;39.30
21357;BME280;10836;53.068;18.234;2023-05-07T11:03:10;102147.22;;;17.70;35.61
21357;BME280;10836;53.068;18.234;2023-05-07T11:06:08;102155.06;;;16.83;37.73
21357;BME280;10836;53.068;18.234;2023-05-07T11:11:48;102146.31;;;16.35;37.58
21357;BME280;10836;53.068;18.234;2023-05-07T11:17:13;102154.94;;;17.18;40.92
21357;BME280;10836;53.068;18.234;2023-05-07T11:19:54;102142.75;;;18.13;37.53
21357;BME280;10836;53.068;18.234;2023-05-07T11:25:08;102158.94;;;17.41;38.26
21357;BME280;10836;53.068;18.234;2023-05-07T11:27:36;102150.00;;;18.04;40.57
21357;BME280;10836;53.068;18.234;2023-05-07T11:30:03;102159.56;;;18.50;37.04
21357;BME280;10836;53.068;18.234;2023-05-07T11:32:31;102150.47;;;18.74;39.62
21357;BME280;10836;53.068;18.234;2023-05-07T11:35:00;102150.09;;;19.28;35.48
21357;BME280;10836;53.068;18.234;2023-05-07T11:37:28;102155.88;;;18.26;35.20
21357;BME280;10836;53.068;18.234;2023-05-07T11:40:05;102145.47;;;18.76;35.24
21357;BME280;10836;53.068;18.234;2023-05-07T11:42:35;102143.59;;;18.95;33.59
21357;BME280;10836;53.068;18.234;2023-05-07T11:45:06;102148.59;;;18.06;35.11
21357;BME280;10836;53.068;18.234;2023-05-07T11:47:33;102158.00;;;17.07;36.24
21357;BME280;10836;53.068;18.234;2023-05-07T11:50:07;102170.72;;;17.62;35.84
21357;BME280;10836;53.068;18.234;2023-05-07T11:52:35;102158.38;;;17.93;35.09
21357;BME280;10836;53.068;18.234;2023-05-07T11:55:03;102153.81;;;18.13;37.41
21357;BME280;10836;53.068;18.234;2023-05-07T11:57:33;102155.59;;;18.62;36.57
21357;BME280;10836;53.068;18.234;2023-05-07T12:00:01;102154.41;;;18.68;35.81
21357;BME280;10836;53.068;18.234;2023-05-07T12:02:38;102166.13;;;17.42;36.79
21357;BME280;10836;53.068;18.234;2023-05-07T12:05:05;102154.28;;;18.20;37.47
21357;BME280;10836;53.068;18.234;2023-05-07T12:07:35;102154.19;;;18.88;36.57
21357;BME280;10836;53.068;18.234;2023-05-07T12:10:06;102157.50;;;19.75;35.44
21357;BME280;10836;53.068;18.234;2023-05-07T12:12:40;102160.75;;;20.15;33.48
21357;BME280;10836;53.068;18.234;2023-05-07T12:15:09;102152.09;;;19.65;33.05
21357;BME280;10836;53.068;18.234;2023-05-07T12:17:36;102154.75;;;19.33;33.58
21357;BME280;10836;53.068;18.234;2023-05-07T12:20:04;102154.63;;;19.43;35.42
21357;BME280;10836;53.068;18.234;2023-05-07T12:22:31;102161.72;;;17.90;35.21
21357;BME280;10836;53.068;18.234;2023-05-07T12:24:58;102161.16;;;17.39;36.14
21357;BME280;10836;53.068;18.234;2023-05-07T12:27:26;102155.94;;;18.79;40.03
21357;BME280;10836;53.068;18.234;2023-05-07T12:29:53;102156.16;;;19.30;34.23
21357;BME280;10836;53.068;18.234;2023-05-07T12:32:21;102162.94;;;19.43;34.04
21357;BME280;10836;53.068;18.234;2023-05-07T12:34:51;102162.59;;;18.49;35.65
21357;BME280;10836;53.068;18.234;2023-05-07T12:37:25;102162.41;;;17.72;37.20
21357;BME280;10836;53.068;18.234;2023-05-07T12:40:23;102170.97;;;17.71;36.87
21357;BME280;10836;53.068;18.234;2023-05-07T12:42:53;102162.72;;;16.96;37.25
21357;BME280;10836;53.068;18.234;2023-05-07T12:45:26;102160.00;;;18.00;38.77
21357;BME280;10836;53.068;18.234;2023-05-07T12:47:53;102161.78;;;17.80;36.00
21357;BME280;10836;53.068;18.234;2023-05-07T12:50:20;102166.59;;;18.04;34.00
21357;BME280;10836;53.068;18.234;2023-05-07T12:52:50;102150.56;;;18.35;36.41
21357;BME280;10836;53.068;18.234;2023-05-07T12:55:17;102155.00;;;19.12;35.24
21357;BME280;10836;53.068;18.234;2023-05-07T12:57:50;102153.34;;;19.35;35.39
21357;BME280;10836;53.068;18.234;2023-05-07T13:00:18;102157.00;;;18.83;34.19
21357;BME280;10836;53.068;18.234;2023-05-07T13:02:58;102152.56;;;19.30;33.57
21357;BME280;10836;53.068;18.234;2023-05-07T13:05:25;102155.09;;;18.54;34.29
21357;BME280;10836;53.068;18.234;2023-05-07T13:07:55;102158.63;;;18.31;34.83
21357;BME280;10836;53.068;18.234;2023-05-07T13:10:23;102150.91;;;18.86;33.91
21357;BME280;10836;53.068;18.234;2023-05-07T13:12:50;102149.78;;;19.30;34.65